Time;durP1;ratioP1;P1;durP2;ratioP2;P2;SDS_P1;SDS_P2;PMS_P1;PMS_P2;Temp;Humidity;BMP_temperature;BMP_pressure;BME280_temperature;BME280_humidity;BME280_pressure;Samples;Min_cycle;Max_cycle;Signal;HPM_P1;HPM_P2
2022/04/18 00:00:36;;;;;;;10.98;7.35;;;;;;;;;;4982850;28;20456;-69
2022/04/18 00:03:03;;;;;;;11.43;7.20;;;;;;;;;;4980283;28;20041;-70
2022/04/18 00:05:32;;;;;;;10.18;7.00;;;;;;;;;;4980853;28;20033;-68
2022/04/18 00:07:58;;;;;;;12.10;7.20;;;;;;;;;;4970836;28;20029;-70
2022/04/18 00:10:23;;;;;;;10.75;7.15;;;;;;;;;;4979539;28;20036;-68
2022/04/18 00:12:48;;;;;;;10.45;6.97;;;;;;;;;;4978508;28;20028;-68
2022/04/18 00:15:14;;;;;;;10.65;7.32;;;;;;;;;;4977846;28;20080;-69
2022/04/18 00:17:40;;;;;;;11.82;7.95;;;;;;;;;;4970009;28;20061;-69
2022/04/18 00:20:06;;;;;;;10.82;7.15;;;;;;;;;;4979503;28;20036;-69
2022/04/18 00:22:33;;;;;;;11.27;7.72;;;;;;;;;;4981275;28;20069;-67
2022/04/18 00:24:59;;;;;;;9.60;7.07;;;;;;;;;;4979319;28;20768;-68
2022/04/18 00:27:24;;;;;;;11.32;7.47;;;;;;;;;;4983086;28;20030;-67
2022/04/18 00:29:50;;;;;;;12.23;7.75;;;;;;;;;;4979009;28;20982;-69
2022/04/18 00:32:16;;;;;;;12.35;7.55;;;;;;;;;;4980580;28;20129;-69
2022/04/18 00:34:41;;;;;;;13.10;7.72;;;;;;;;;;4977882;28;20115;-68
2022/04/18 00:37:09;;;;;;;14.27;8.20;;;;;;;;;;4980648;28;20058;-68
2022/04/18 00:39:35;;;;;;;12.20;8.02;;;;;;;;;;4979232;28;20031;-69
2022/04/18 00:42:03;;;;;;;12.52;7.63;;;;;;;;;;4982156;28;20103;-68
2022/04/18 00:44:28;;;;;;;12.90;8.40;;;;;;;;;;4994442;28;20037;-68
2022/04/18 00:46:56;;;;;;;11.73;8.07;;;;;;;;;;4979400;28;20036;-69
2022/04/18 00:49:21;;;;;;;12.05;8.50;;;;;;;;;;4977628;28;20038;-69
2022/04/18 00:51:46;;;;;;;13.05;7.80;;;;;;;;;;4996384;28;20095;-69
2022/04/18 00:54:12;;;;;;;12.77;8.98;;;;;;;;;;4978982;28;20038;-69
2022/04/18 00:56:40;;;;;;;12.98;8.25;;;;;;;;;;4985629;28;20090;-69
2022/04/18 00:59:06;;;;;;;11.68;8.18;;;;;;;;;;4995375;28;20068;-68
2022/04/18 01:01:32;;;;;;;12.70;8.48;;;;;;;;;;4977697;28;20033;-69
2022/04/18 01:04:00;;;;;;;12.85;7.88;;;;;;;;;;4981477;28;20323;-69
2022/04/18 01:06:25;;;;;;;11.00;7.72;;;;;;;;;;4978867;28;20449;-69
2022/04/18 01:08:50;;;;;;;11.32;7.93;;;;;;;;;;4978870;28;20146;-69
2022/04/18 01:11:18;;;;;;;12.40;7.95;;;;;;;;;;4991687;28;20177;-69
2022/04/18 01:13:47;;;;;;;12.77;7.78;;;;;;;;;;4980463;28;20044;-69
2022/04/18 01:16:15;;;;;;;11.98;7.90;;;;;;;;;;4981223;28;20197;-70
2022/04/18 01:18:40;;;;;;;13.27;7.90;;;;;;;;;;4978032;28;20025;-68
2022/04/18 01:21:07;;;;;;;10.93;7.85;;;;;;;;;;4981131;28;20114;-69
2022/04/18 01:23:32;;;;;;;11.27;8.23;;;;;;;;;;4979676;28;20269;-67
2022/04/18 01:29:03;;;;;;;12.70;8.25;;;;;;;;;;4990405;28;20033;-69
2022/04/18 01:31:30;;;;;;;11.98;8.30;;;;;;;;;;4980936;28;20081;-70
2022/04/18 01:33:56;;;;;;;11.23;7.95;;;;;;;;;;4977867;28;20032;-69
2022/04/18 01:36:22;;;;;;;12.63;8.43;;;;;;;;;;4979953;28;20033;-70
2022/04/18 01:38:47;;;;;;;15.55;8.77;;;;;;;;;;4994110;28;20425;-69
2022/04/18 01:41:12;;;;;;;11.80;7.80;;;;;;;;;;4981308;28;20529;-69
2022/04/18 01:43:40;;;;;;;13.05;7.78;;;;;;;;;;4979309;28;20580;-70
2022/04/18 01:46:08;;;;;;;16.75;9.32;;;;;;;;;;4992808;28;20045;-70
2022/04/18 01:48:33;;;;;;;14.05;9.05;;;;;;;;;;4980789;28;20036;-70
2022/04/18 01:51:01;;;;;;;12.98;8.45;;;;;;;;;;4977053;28;20422;-69
2022/04/18 01:53:28;;;;;;;12.85;8.65;;;;;;;;;;4975252;28;20570;-69
2022/04/18 01:55:55;;;;;;;13.90;8.95;;;;;;;;;;4980326;28;20041;-69
2022/04/18 01:58:20;;;;;;;14.75;8.77;;;;;;;;;;4978186;28;20094;-70
2022/04/18 02:00:46;;;;;;;16.55;9.50;;;;;;;;;;4981004;28;20674;-68
2022/04/18 02:03:11;;;;;;;20.35;10.45;;;;;;;;;;4979251;28;20155;-69
2022/04/18 02:05:37;;;;;;;19.20;10.00;;;;;;;;;;4978605;28;20532;-69
2022/04/18 02:08:05;;;;;;;18.02;10.70;;;;;;;;;;4981836;28;20191;-70
2022/04/18 02:10:30;;;;;;;16.90;10.02;;;;;;;;;;4995403;28;20168;-69
2022/04/18 02:12:57;;;;;;;20.42;11.95;;;;;;;;;;4978409;28;20064;-68
2022/04/18 02:15:22;;;;;;;22.55;12.77;;;;;;;;;;4983261;28;20045;-68
2022/04/18 02:17:47;;;;;;;18.40;11.20;;;;;;;;;;4993657;28;20064;-68
2022/04/18 02:20:13;;;;;;;16.55;10.40;;;;;;;;;;4991747;28;21437;-69
2022/04/18 02:22:38;;;;;;;18.25;11.50;;;;;;;;;;4992774;28;20096;-68
2022/04/18 02:25:04;;;;;;;17.98;11.15;;;;;;;;;;4978359;28;20061;-68
2022/04/18 02:27:29;;;;;;;19.00;11.27;;;;;;;;;;4978588;28;20033;-69
2022/04/18 02:29:54;;;;;;;15.43;9.68;;;;;;;;;;4979425;28;20049;-69
2022/04/18 02:35:04;;;;;;;18.05;10.52;;;;;;;;;;4983203;28;20898;-70
2022/04/18 02:37:29;;;;;;;17.23;10.30;;;;;;;;;;4997675;28;20038;-70
2022/04/18 02:39:59;;;;;;;20.60;10.05;;;;;;;;;;4985832;28;20351;-70
2022/04/18 02:42:24;;;;;;;16.10;9.82;;;;;;;;;;4983884;28;20497;-69
2022/04/18 02:44:49;;;;;;;18.73;10.13;;;;;;;;;;4980960;28;20572;-70
2022/04/18 02:47:15;;;;;;;19.20;11.23;;;;;;;;;;4981555;28;20026;-69
2022/04/18 02:49:40;;;;;;;19.73;11.05;;;;;;;;;;4986772;28;20031;-69
2022/04/18 02:52:06;;;;;;;17.85;10.70;;;;;;;;;;4985198;28;21016;-69
2022/04/18 02:54:34;;;;;;;20.67;10.13;;;;;;;;;;4984142;28;20184;-70
2022/04/18 02:56:59;;;;;;;25.67;12.43;;;;;;;;;;4983348;28;20597;-67
2022/04/18 02:59:24;;;;;;;20.02;11.15;;;;;;;;;;4996887;28;20171;-68
2022/04/18 03:01:52;;;;;;;16.58;8.60;;;;;;;;;;4979617;28;20486;-68
2022/04/18 03:04:17;;;;;;;17.77;9.63;;;;;;;;;;5000324;28;20548;-69
2022/04/18 03:06:43;;;;;;;14.90;9.30;;;;;;;;;;4981527;28;20068;-70
2022/04/18 03:09:08;;;;;;;16.02;9.15;;;;;;;;;;4985192;28;20025;-70
2022/04/18 03:11:34;;;;;;;18.33;10.45;;;;;;;;;;4981396;28;20044;-69
2022/04/18 03:13:59;;;;;;;25.92;11.98;;;;;;;;;;4986461;28;20557;-69
2022/04/18 03:16:27;;;;;;;20.55;11.48;;;;;;;;;;4985362;28;20251;-69
2022/04/18 03:18:52;;;;;;;13.73;8.77;;;;;;;;;;4983922;28;20080;-70
2022/04/18 03:21:20;;;;;;;18.77;8.85;;;;;;;;;;4983175;28;20048;-70
2022/04/18 03:23:46;;;;;;;12.63;7.88;;;;;;;;;;4971517;28;20279;-69
2022/04/18 03:26:11;;;;;;;13.60;8.00;;;;;;;;;;4998526;28;20064;-69
2022/04/18 03:28:37;;;;;;;13.35;7.53;;;;;;;;;;4983292;28;20106;-69
2022/04/18 03:31:02;;;;;;;13.90;8.05;;;;;;;;;;4981936;28;20041;-69
2022/04/18 03:33:28;;;;;;;18.65;9.60;;;;;;;;;;4992501;28;20065;-70
2022/04/18 03:41:21;;;;;;;15.38;9.10;;;;;;;;;;4981983;28;20025;-69
2022/04/18 03:43:47;;;;;;;13.45;8.52;;;;;;;;;;4995159;28;20421;-69
2022/04/18 03:46:12;;;;;;;15.63;9.68;;;;;;;;;;4983615;28;20033;-68
2022/04/18 03:48:41;;;;;;;15.27;8.60;;;;;;;;;;4980435;28;20065;-69
2022/04/18 03:51:06;;;;;;;13.30;7.85;;;;;;;;;;4981050;28;20030;-69
2022/04/18 03:53:31;;;;;;;11.13;7.43;;;;;;;;;;4989054;28;20441;-69
2022/04/18 03:55:57;;;;;;;9.98;6.90;;;;;;;;;;4984515;28;20032;-70
2022/04/18 03:58:22;;;;;;;14.98;8.77;;;;;;;;;;4980927;28;20121;-70
2022/04/18 04:00:47;;;;;;;20.30;10.13;;;;;;;;;;4982136;28;20339;-69
2022/04/18 04:03:12;;;;;;;17.60;8.23;;;;;;;;;;4966691;28;20038;-69
2022/04/18 04:05:38;;;;;;;16.92;9.13;;;;;;;;;;4981418;28;20037;-70
2022/04/18 04:08:04;;;;;;;20.98;9.65;;;;;;;;;;4996990;28;20026;-69
2022/04/18 04:10:29;;;;;;;15.38;7.95;;;;;;;;;;4980268;28;20120;-69
2022/04/18 04:12:55;;;;;;;15.25;8.63;;;;;;;;;;4982812;28;20695;-66
2022/04/18 04:15:20;;;;;;;17.00;10.15;;;;;;;;;;4995212;28;20484;-69
2022/04/18 04:17:46;;;;;;;14.65;8.98;;;;;;;;;;4978890;28;20326;-69
2022/04/18 04:20:13;;;;;;;15.65;9.00;;;;;;;;;;4979830;28;20091;-69
2022/04/18 04:22:49;;;;;;;15.18;9.48;;;;;;;;;;4979495;28;20531;-69
2022/04/18 04:25:15;;;;;;;14.73;7.75;;;;;;;;;;4995487;28;20491;-68
2022/04/18 04:27:41;;;;;;;14.27;7.63;;;;;;;;;;4984462;28;20048;-67
2022/04/18 04:30:06;;;;;;;15.38;8.65;;;;;;;;;;4982359;28;20021;-69
2022/04/18 04:32:31;;;;;;;17.27;8.38;;;;;;;;;;4990375;28;20209;-68
2022/04/18 04:34:57;;;;;;;20.67;8.85;;;;;;;;;;4986495;28;20031;-68
2022/04/18 04:37:22;;;;;;;17.73;8.73;;;;;;;;;;4979995;28;20173;-69
2022/04/18 04:39:47;;;;;;;15.10;7.50;;;;;;;;;;4998966;28;20029;-69
2022/04/18 04:42:14;;;;;;;18.30;7.35;;;;;;;;;;4978561;28;20125;-69
2022/04/18 04:44:40;;;;;;;11.68;7.22;;;;;;;;;;4981410;28;20231;-69
2022/04/18 04:47:05;;;;;;;12.10;6.70;;;;;;;;;;4993822;28;20157;-68
2022/04/18 04:49:30;;;;;;;16.63;7.10;;;;;;;;;;4981653;28;20342;-69
2022/04/18 04:51:58;;;;;;;13.38;6.95;;;;;;;;;;4980282;28;20286;-69
2022/04/18 04:54:25;;;;;;;14.35;7.53;;;;;;;;;;4979321;28;20560;-68
2022/04/18 04:56:53;;;;;;;9.75;6.00;;;;;;;;;;4979187;28;20072;-68
2022/04/18 04:59:18;;;;;;;13.70;6.13;;;;;;;;;;4980012;28;20072;-68
2022/04/18 05:01:43;;;;;;;13.68;6.38;;;;;;;;;;4978547;28;20034;-68
2022/04/18 05:04:11;;;;;;;15.88;6.40;;;;;;;;;;4981415;28;20122;-69
2022/04/18 05:06:36;;;;;;;14.90;6.90;;;;;;;;;;4981671;28;20050;-68
2022/04/18 05:09:04;;;;;;;11.07;6.53;;;;;;;;;;4985677;28;20479;-68
2022/04/18 05:11:29;;;;;;;13.32;6.88;;;;;;;;;;4994434;28;20524;-69
2022/04/18 05:13:55;;;;;;;12.85;6.50;;;;;;;;;;4981553;28;20033;-69
2022/04/18 05:16:20;;;;;;;8.95;5.32;;;;;;;;;;4984156;28;20088;-69
2022/04/18 05:18:46;;;;;;;12.05;5.80;;;;;;;;;;4993291;28;20025;-68
2022/04/18 05:21:11;;;;;;;10.48;5.50;;;;;;;;;;4981692;28;20034;-69
2022/04/18 05:23:37;;;;;;;8.50;5.40;;;;;;;;;;4980215;28;20844;-70
2022/04/18 05:26:05;;;;;;;9.20;4.95;;;;;;;;;;4997180;28;20135;-69
2022/04/18 05:28:30;;;;;;;8.63;5.30;;;;;;;;;;4996386;28;20268;-68
2022/04/18 05:30:57;;;;;;;14.68;5.43;;;;;;;;;;4979912;28;20030;-69
2022/04/18 05:33:25;;;;;;;10.55;5.45;;;;;;;;;;4964068;28;20069;-69
2022/04/18 05:35:50;;;;;;;10.20;5.30;;;;;;;;;;4977593;28;20211;-69
2022/04/18 05:38:16;;;;;;;10.93;6.00;;;;;;;;;;4977835;28;20521;-70
2022/04/18 05:40:41;;;;;;;12.25;5.22;;;;;;;;;;4977608;28;20481;-69
2022/04/18 05:43:08;;;;;;;10.85;5.95;;;;;;;;;;4997578;28;20417;-70
2022/04/18 05:45:34;;;;;;;13.30;5.93;;;;;;;;;;4978688;28;20029;-68
2022/04/18 05:47:59;;;;;;;13.93;5.88;;;;;;;;;;4978225;28;20040;-69
2022/04/18 05:50:27;;;;;;;14.77;5.75;;;;;;;;;;4991867;28;20423;-69
2022/04/18 05:52:52;;;;;;;13.63;5.88;;;;;;;;;;4978849;28;20047;-69
2022/04/18 05:55:17;;;;;;;11.27;4.40;;;;;;;;;;4976303;28;20421;-68
2022/04/18 05:57:43;;;;;;;10.43;4.53;;;;;;;;;;4975566;28;20029;-69
2022/04/18 06:00:10;;;;;;;14.60;5.75;;;;;;;;;;5388007;22;20050;-64
2022/04/18 06:02:38;;;;;;;16.58;5.88;;;;;;;;;;4987996;28;20042;-63
2022/04/18 06:05:07;;;;;;;17.90;6.22;;;;;;;;;;4991030;28;20079;-63
2022/04/18 06:07:32;;;;;;;16.63;6.30;;;;;;;;;;4990742;28;20083;-64
2022/04/18 06:09:57;;;;;;;15.38;5.72;;;;;;;;;;4989685;28;20061;-63
2022/04/18 06:12:26;;;;;;;12.98;5.28;;;;;;;;;;4990754;28;20174;-64
2022/04/18 06:14:52;;;;;;;12.05;5.88;;;;;;;;;;4990001;28;20073;-65
2022/04/18 06:17:17;;;;;;;12.98;5.53;;;;;;;;;;4989953;28;20564;-64
2022/04/18 06:19:43;;;;;;;18.70;6.32;;;;;;;;;;4990783;28;20429;-64
2022/04/18 06:22:11;;;;;;;15.70;6.10;;;;;;;;;;5004075;28;20033;-63
2022/04/18 06:24:51;;;;;;;9.82;5.28;;;;;;;;;;5074946;27;20137;-63
2022/04/18 06:27:16;;;;;;;10.65;5.18;;;;;;;;;;5055591;28;20058;-63
2022/04/18 06:29:41;;;;;;;10.40;4.72;;;;;;;;;;5055651;28;20106;-64
2022/04/18 06:32:07;;;;;;;9.20;5.00;;;;;;;;;;5053212;28;20032;-63
2022/04/18 06:34:32;;;;;;;7.13;4.70;;;;;;;;;;5053230;28;20104;-62
2022/04/18 06:36:58;;;;;;;9.43;5.10;;;;;;;;;;5052017;28;20036;-65
2022/04/18 06:39:23;;;;;;;12.70;5.38;;;;;;;;;;5068018;28;20072;-63
2022/04/18 06:41:48;;;;;;;8.50;4.65;;;;;;;;;;5054226;28;20032;-65
2022/04/18 06:44:16;;;;;;;8.02;4.68;;;;;;;;;;5062780;28;20056;-63
2022/04/18 06:46:41;;;;;;;7.28;4.20;;;;;;;;;;5054203;28;20347;-63
2022/04/18 06:49:06;;;;;;;9.88;5.05;;;;;;;;;;5055697;28;20337;-64
2022/04/18 06:51:31;;;;;;;11.50;5.35;;;;;;;;;;5054243;28;21229;-64
2022/04/18 06:53:57;;;;;;;11.65;4.93;;;;;;;;;;5054209;28;20534;-64
2022/04/18 06:59:06;;;;;;;8.45;4.32;;;;;;;;;;5055701;28;20039;-64
2022/04/18 07:01:31;;;;;;;10.07;4.65;;;;;;;;;;5055132;28;20031;-63
2022/04/18 07:03:57;;;;;;;8.82;4.35;;;;;;;;;;5053258;28;20039;-64
2022/04/18 07:06:25;;;;;;;10.70;5.05;;;;;;;;;;5054113;28;20142;-63
2022/04/18 07:08:50;;;;;;;10.95;4.55;;;;;;;;;;5055147;28;20037;-64
2022/04/18 07:11:16;;;;;;;9.95;4.90;;;;;;;;;;5070533;28;20035;-64
2022/04/18 07:13:41;;;;;;;9.85;4.03;;;;;;;;;;5055126;28;20795;-65
2022/04/18 07:16:07;;;;;;;8.13;3.75;;;;;;;;;;5052879;28;20029;-65
2022/04/18 07:18:36;;;;;;;9.65;4.10;;;;;;;;;;5055292;28;20033;-64
2022/04/18 07:21:04;;;;;;;9.52;4.68;;;;;;;;;;5054193;28;20988;-64
2022/04/18 07:23:32;;;;;;;7.60;4.10;;;;;;;;;;5054664;28;20131;-65
2022/04/18 07:25:57;;;;;;;9.38;5.05;;;;;;;;;;5053702;28;20542;-65
2022/04/18 07:28:22;;;;;;;9.98;4.55;;;;;;;;;;5053518;28;20024;-65
2022/04/18 07:30:48;;;;;;;13.82;5.57;;;;;;;;;;5054662;28;20032;-65
2022/04/18 07:33:16;;;;;;;15.45;6.18;;;;;;;;;;5053761;28;20036;-64
2022/04/18 07:35:42;;;;;;;17.88;6.75;;;;;;;;;;5043782;28;20037;-65
2022/04/18 07:40:52;;;;;;;12.32;5.20;;;;;;;;;;5040466;28;20665;-66
2022/04/18 07:43:17;;;;;;;18.60;6.25;;;;;;;;;;5040065;28;20036;-64
2022/04/18 07:45:47;;;;;;;11.18;4.38;;;;;;;;;;5040382;28;20483;-66
2022/04/18 07:48:12;;;;;;;9.70;4.30;;;;;;;;;;5042897;28;20565;-64
2022/04/18 07:53:22;;;;;;;13.82;4.80;;;;;;;;;;5041382;28;20056;-65
2022/04/18 07:55:48;;;;;;;14.15;5.57;;;;;;;;;;5035243;28;20040;-66
2022/04/18 07:58:13;;;;;;;19.80;6.90;;;;;;;;;;5034934;28;20040;-66
2022/04/18 08:00:38;;;;;;;19.45;6.25;;;;;;;;;;5032175;28;20479;-66
2022/04/18 08:03:04;;;;;;;25.08;8.13;;;;;;;;;;5027999;28;20024;-66
2022/04/18 08:05:29;;;;;;;13.85;5.15;;;;;;;;;;5031068;28;20629;-68
2022/04/18 08:07:54;;;;;;;12.70;5.53;;;;;;;;;;5036647;28;20056;-66
2022/04/18 08:10:19;;;;;;;20.70;7.03;;;;;;;;;;5032357;28;20037;-66
2022/04/18 08:12:45;;;;;;;22.63;8.40;;;;;;;;;;5033514;28;20032;-66
2022/04/18 08:15:10;;;;;;;17.88;6.40;;;;;;;;;;5033377;28;20043;-68
2022/04/18 08:17:36;;;;;;;24.38;8.57;;;;;;;;;;5032075;28;20040;-66
2022/04/18 08:20:02;;;;;;;17.98;7.03;;;;;;;;;;5031609;28;20492;-67
2022/04/18 08:22:30;;;;;;;21.83;8.05;;;;;;;;;;5031683;28;20064;-68
2022/04/18 08:24:55;;;;;;;16.40;6.15;;;;;;;;;;5034125;28;20383;-65
2022/04/18 08:27:21;;;;;;;16.02;5.78;;;;;;;;;;5033697;28;20547;-66
2022/04/18 08:29:47;;;;;;;21.92;7.10;;;;;;;;;;5032604;28;20267;-66
2022/04/18 08:32:12;;;;;;;23.75;8.23;;;;;;;;;;5035999;28;20170;-66
2022/04/18 08:34:38;;;;;;;23.13;7.85;;;;;;;;;;5035978;28;20036;-65
2022/04/18 08:37:03;;;;;;;17.85;6.60;;;;;;;;;;5035996;28;20477;-66
2022/04/18 08:39:33;;;;;;;18.45;6.50;;;;;;;;;;5054675;28;20240;-67
2022/04/18 08:41:59;;;;;;;15.18;5.95;;;;;;;;;;5039426;28;20044;-67
2022/04/18 08:44:28;;;;;;;17.15;6.47;;;;;;;;;;5049779;28;20059;-66
2022/04/18 08:46:57;;;;;;;16.48;5.10;;;;;;;;;;5032833;28;20212;-69
2022/04/18 08:52:45;;;;;;;12.15;4.65;;;;;;;;;;5033645;28;20479;-70
2022/04/18 08:55:11;;;;;;;11.98;5.20;;;;;;;;;;5031941;28;20039;-67
2022/04/18 08:57:36;;;;;;;10.07;3.42;;;;;;;;;;5033061;28;20380;-67
2022/04/18 09:00:05;;;;;;;7.55;3.78;;;;;;;;;;5031458;28;20028;-66
2022/04/18 09:02:30;;;;;;;5.30;2.90;;;;;;;;;;5031922;28;20460;-66
2022/04/18 09:04:59;;;;;;;11.05;3.88;;;;;;;;;;5030841;28;20488;-67
2022/04/18 09:07:25;;;;;;;7.20;3.72;;;;;;;;;;5024937;28;20066;-67
2022/04/18 09:09:55;;;;;;;6.10;2.92;;;;;;;;;;5032269;28;20037;-65
2022/04/18 09:12:21;;;;;;;7.32;3.45;;;;;;;;;;5029273;28;20448;-65
2022/04/18 09:14:48;;;;;;;7.63;3.85;;;;;;;;;;5031582;28;20464;-66
2022/04/18 09:17:29;;;;;;;6.50;2.83;;;;;;;;;;5031625;28;20037;-67
2022/04/18 09:20:11;;;;;;;5.00;2.60;;;;;;;;;;5032285;28;20060;-67
2022/04/18 09:22:36;;;;;;;;;;;;;;;;;;5030189;28;20043;-67
2022/04/18 09:25:01;;;;;;;18.53;6.20;;;;;;;;;;5032476;28;20165;-69
2022/04/18 09:27:29;;;;;;;7.18;3.60;;;;;;;;;;5032026;28;20373;-69
2022/04/18 09:30:10;;;;;;;9.55;3.88;;;;;;;;;;5029071;28;20020;-64
2022/04/18 09:32:37;;;;;;;6.53;2.95;;;;;;;;;;5032322;28;20524;-64
2022/04/18 09:35:05;;;;;;;6.80;4.10;;;;;;;;;;5031029;28;20395;-63
2022/04/18 09:37:31;;;;;;;9.85;4.50;;;;;;;;;;5031760;28;20235;-64
2022/04/18 09:40:02;;;;;;;8.85;3.08;;;;;;;;;;5031409;28;20749;-63
2022/04/18 09:42:28;;;;;;;10.57;4.60;;;;;;;;;;5032646;28;20472;-64
2022/04/18 09:44:54;;;;;;;7.25;3.45;;;;;;;;;;5030597;28;20577;-66
2022/04/18 09:47:25;;;;;;;4.40;2.28;;;;;;;;;;5030644;28;20029;-66
2022/04/18 09:49:51;;;;;;;5.15;2.97;;;;;;;;;;5032555;28;20099;-65
2022/04/18 09:52:18;;;;;;;4.35;2.10;;;;;;;;;;5045025;28;20623;-66
2022/04/18 09:54:50;;;;;;;3.88;1.75;;;;;;;;;;5029888;28;20037;-66
2022/04/18 09:57:20;;;;;;;3.05;1.80;;;;;;;;;;5036491;28;20032;-65
2022/04/18 09:59:45;;;;;;;2.95;1.90;;;;;;;;;;5034280;28;20077;-65
2022/04/18 10:02:12;;;;;;;3.08;1.58;;;;;;;;;;5038363;28;20189;-66
2022/04/18 10:04:38;;;;;;;2.85;1.20;;;;;;;;;;5037373;28;20041;-66
2022/04/18 10:07:06;;;;;;;3.90;1.80;;;;;;;;;;5035862;28;20029;-66
2022/04/18 10:09:32;;;;;;;4.80;2.50;;;;;;;;;;5038150;28;20031;-65
2022/04/18 10:11:57;;;;;;;5.93;1.90;;;;;;;;;;5037948;28;20033;-64
2022/04/18 10:14:23;;;;;;;6.82;2.67;;;;;;;;;;5037120;28;20113;-64
2022/04/18 10:16:54;;;;;;;5.78;2.30;;;;;;;;;;5036347;28;20043;-65
2022/04/18 10:19:32;;;;;;;5.28;2.50;;;;;;;;;;5035347;28;20045;-65
2022/04/18 10:22:03;;;;;;;5.18;2.78;;;;;;;;;;5037036;28;20024;-64
2022/04/18 10:24:42;;;;;;;3.42;2.60;;;;;;;;;;5038641;28;20063;-65
2022/04/18 10:27:38;;;;;;;4.32;2.45;;;;;;;;;;5037093;28;20438;-66
2022/04/18 10:30:03;;;;;;;;;;;;;;;;;;5038746;28;20029;-66
2022/04/18 10:32:29;;;;;;;4.43;2.42;;;;;;;;;;5044526;28;19923;-65
2022/04/18 10:35:01;;;;;;;4.22;2.10;;;;;;;;;;5044211;28;20025;-65
2022/04/18 10:37:27;;;;;;;4.85;3.22;;;;;;;;;;5039954;28;21780;-65
2022/04/18 10:39:56;;;;;;;7.00;3.03;;;;;;;;;;5036944;28;20495;-64
2022/04/18 10:42:23;;;;;;;5.03;2.50;;;;;;;;;;5037137;28;20540;-66
2022/04/18 10:45:00;;;;;;;4.50;2.25;;;;;;;;;;5037327;28;20120;-65
2022/04/18 10:47:26;;;;;;;6.43;1.88;;;;;;;;;;5037316;28;20021;-64
2022/04/18 10:50:30;;;;;;;4.25;2.10;;;;;;;;;;5038669;28;20051;-66
2022/04/18 10:53:08;;;;;;;3.47;2.50;;;;;;;;;;5036976;28;20643;-66
2022/04/18 10:55:34;;;;;;;4.40;1.90;;;;;;;;;;5039376;28;20489;-64
2022/04/18 10:58:09;;;;;;;3.22;1.60;;;;;;;;;;5036373;28;20044;-64
2022/04/18 11:00:54;;;;;;;5.18;1.98;;;;;;;;;;5033907;28;20109;-65
2022/04/18 11:03:37;;;;;;;3.63;1.70;;;;;;;;;;5027281;28;20041;-65
2022/04/18 11:06:03;;;;;;;4.38;1.73;;;;;;;;;;5028817;28;20072;-68
2022/04/18 11:08:37;;;;;;;4.95;1.40;;;;;;;;;;5028323;28;20624;-67
2022/04/18 11:11:04;;;;;;;4.28;1.83;;;;;;;;;;5029936;28;20032;-67
2022/04/18 11:13:33;;;;;;;3.65;2.35;;;;;;;;;;5028587;28;20036;-67
2022/04/18 11:16:24;;;;;;;4.13;2.63;;;;;;;;;;5032019;28;20242;-67
2022/04/18 11:19:08;;;;;;;2.95;2.30;;;;;;;;;;5028318;28;20036;-67
2022/04/18 11:21:54;;;;;;;4.75;2.60;;;;;;;;;;5040358;28;20508;-71
2022/04/18 11:24:31;;;;;;;3.60;2.38;;;;;;;;;;5043698;28;20063;-70
2022/04/18 11:26:59;;;;;;;5.38;3.05;;;;;;;;;;5043831;28;20040;-71
2022/04/18 11:29:25;;;;;;;3.88;2.92;;;;;;;;;;5041657;28;20542;-70
2022/04/18 11:31:50;;;;;;;4.70;2.97;;;;;;;;;;5043619;28;20024;-70
2022/04/18 11:34:17;;;;;;;6.45;3.00;;;;;;;;;;5042150;28;20040;-70
2022/04/18 11:36:43;;;;;;;3.70;2.80;;;;;;;;;;5041820;28;20029;-70
2022/04/18 11:39:13;;;;;;;4.80;2.20;;;;;;;;;;5042649;28;20032;-69
2022/04/18 11:41:38;;;;;;;4.32;3.25;;;;;;;;;;5041006;28;20033;-69
2022/04/18 11:44:04;;;;;;;4.47;3.03;;;;;;;;;;5039387;28;20058;-70
2022/04/18 11:46:32;;;;;;;6.05;3.10;;;;;;;;;;5044598;28;20067;-68
2022/04/18 11:48:57;;;;;;;5.15;3.42;;;;;;;;;;5044123;28;20036;-65
2022/04/18 11:51:41;;;;;;;4.95;2.58;;;;;;;;;;5042170;28;20036;-66
2022/04/18 11:54:07;;;;;;;9.07;3.38;;;;;;;;;;5042342;28;20056;-65
2022/04/18 11:56:32;;;;;;;6.00;2.80;;;;;;;;;;5041682;28;20041;-64
2022/04/18 11:59:02;;;;;;;9.00;3.28;;;;;;;;;;5043024;28;20033;-66
2022/04/18 12:06:55;;;;;;;5.35;3.00;;;;;;;;;;5041146;28;20032;-65
2022/04/18 12:09:25;;;;;;;4.70;2.88;;;;;;;;;;5042527;28;20033;-66
2022/04/18 12:11:50;;;;;;;3.88;2.40;;;;;;;;;;5040934;28;20035;-65
2022/04/18 12:14:20;;;;;;;3.40;2.20;;;;;;;;;;5043013;28;20857;-65
2022/04/18 12:16:45;;;;;;;3.75;2.60;;;;;;;;;;5040062;28;20029;-67
2022/04/18 12:19:11;;;;;;;5.68;2.80;;;;;;;;;;5047545;28;20090;-66
2022/04/18 12:21:37;;;;;;;5.30;3.10;;;;;;;;;;5033800;28;20025;-64
2022/04/18 12:24:03;;;;;;;4.88;3.42;;;;;;;;;;5030845;28;20047;-65
2022/04/18 12:26:30;;;;;;;5.50;3.80;;;;;;;;;;5034451;28;20036;-70
2022/04/18 12:29:07;;;;;;;5.72;4.28;;;;;;;;;;5022703;28;20021;-69
2022/04/18 12:31:36;;;;;;;7.10;4.22;;;;;;;;;;5025083;28;20731;-59
2022/04/18 12:34:01;;;;;;;6.57;4.90;;;;;;;;;;5025139;28;20025;-61
2022/04/18 12:36:32;;;;;;;6.32;4.45;;;;;;;;;;5024230;28;20832;-60
2022/04/18 12:39:00;;;;;;;4.97;4.32;;;;;;;;;;5024930;28;20027;-61
2022/04/18 12:41:26;;;;;;;6.85;4.53;;;;;;;;;;5023229;28;20036;-59
2022/04/18 12:43:52;;;;;;;5.90;4.63;;;;;;;;;;5023920;28;20029;-60
2022/04/18 12:46:22;;;;;;;5.85;4.68;;;;;;;;;;5026938;28;20032;-61
2022/04/18 12:48:51;;;;;;;9.45;5.13;;;;;;;;;;5024644;28;20023;-60
2022/04/18 12:51:17;;;;;;;7.13;5.25;;;;;;;;;;5023977;28;21077;-60
2022/04/18 12:53:53;;;;;;;6.72;4.47;;;;;;;;;;5024615;28;20047;-60
2022/04/18 12:56:23;;;;;;;6.30;4.38;;;;;;;;;;5024829;28;20035;-61
2022/04/18 12:58:51;;;;;;;5.78;4.07;;;;;;;;;;5023386;28;21248;-62
2022/04/18 13:01:36;;;;;;;7.68;3.80;;;;;;;;;;5021060;28;20100;-62
2022/04/18 13:04:18;;;;;;;6.32;4.45;;;;;;;;;;5021287;28;20025;-61
2022/04/18 13:06:43;;;;;;;6.95;4.20;;;;;;;;;;5024854;28;20127;-60
2022/04/18 13:09:09;;;;;;;6.32;4.18;;;;;;;;;;5023183;28;20035;-61
2022/04/18 13:11:41;;;;;;;5.03;4.45;;;;;;;;;;5024125;28;20047;-60
2022/04/18 13:14:07;;;;;;;5.47;3.50;;;;;;;;;;5022502;28;20032;-62
2022/04/18 13:16:35;;;;;;;6.90;3.80;;;;;;;;;;5022708;28;20039;-60
2022/04/18 13:19:02;;;;;;;6.05;3.90;;;;;;;;;;5025425;28;20029;-62
2022/04/18 13:21:30;;;;;;;5.88;4.20;;;;;;;;;;5017513;28;20587;-61
2022/04/18 13:23:56;;;;;;;6.85;3.95;;;;;;;;;;5017958;28;20045;-61
2022/04/18 13:26:21;;;;;;;5.32;3.92;;;;;;;;;;5017028;28;20094;-61
2022/04/18 13:28:47;;;;;;;5.93;4.13;;;;;;;;;;5019644;28;20062;-61
2022/04/18 13:31:12;;;;;;;5.10;4.13;;;;;;;;;;5018499;28;20032;-62
2022/04/18 13:33:37;;;;;;;4.95;4.28;;;;;;;;;;5018124;28;22597;-62
2022/04/18 13:39:02;;;;;;;5.85;4.10;;;;;;;;;;5004813;28;20052;-62
2022/04/18 13:41:28;;;;;;;6.32;4.07;;;;;;;;;;5019331;28;20056;-61
2022/04/18 13:43:54;;;;;;;6.20;4.63;;;;;;;;;;5020962;28;21987;-61
2022/04/18 13:46:19;;;;;;;4.57;3.92;;;;;;;;;;5034183;28;20577;-60
2022/04/18 13:48:48;;;;;;;5.88;4.35;;;;;;;;;;5019156;28;20083;-61
2022/04/18 13:51:21;;;;;;;6.22;4.93;;;;;;;;;;5022473;28;20757;-61
2022/04/18 13:53:49;;;;;;;7.20;4.57;;;;;;;;;;5018319;28;20054;-62
2022/04/18 13:56:15;;;;;;;7.32;5.30;;;;;;;;;;5019831;28;20528;-61
2022/04/18 13:58:41;;;;;;;6.00;5.18;;;;;;;;;;5018865;28;20055;-62
2022/04/18 14:01:06;;;;;;;8.88;5.38;;;;;;;;;;5001580;28;20474;-62
2022/04/18 14:03:33;;;;;;;8.43;5.13;;;;;;;;;;5018609;28;20523;-62
2022/04/18 14:05:59;;;;;;;7.47;5.25;;;;;;;;;;5015096;28;20309;-61
2022/04/18 14:08:25;;;;;;;8.57;5.30;;;;;;;;;;5017950;28;20098;-62
2022/04/18 14:10:50;;;;;;;7.93;5.75;;;;;;;;;;5016137;28;20025;-61
2022/04/18 14:13:16;;;;;;;8.13;5.65;;;;;;;;;;5017654;28;21012;-60
2022/04/18 14:21:12;;;;;;;8.57;5.85;;;;;;;;;;5019442;28;20053;-60
2022/04/18 14:23:41;;;;;;;8.23;5.70;;;;;;;;;;5018213;28;20067;-61
2022/04/18 14:26:06;;;;;;;7.32;6.07;;;;;;;;;;5017165;28;20364;-63
2022/04/18 14:28:32;;;;;;;8.90;6.43;;;;;;;;;;5019894;28;20068;-63
2022/04/18 14:30:57;;;;;;;7.68;5.85;;;;;;;;;;5018117;28;20025;-62
2022/04/18 14:33:23;;;;;;;8.40;5.45;;;;;;;;;;5033988;28;20068;-60
2022/04/18 14:35:48;;;;;;;8.68;6.10;;;;;;;;;;5018985;28;20052;-61
2022/04/18 14:38:15;;;;;;;8.02;6.10;;;;;;;;;;5020032;28;20087;-62
2022/04/18 14:40:43;;;;;;;7.15;5.97;;;;;;;;;;5018308;28;20036;-65
2022/04/18 14:43:08;;;;;;;8.18;6.10;;;;;;;;;;5020521;28;20036;-62
2022/04/18 14:45:36;;;;;;;8.88;6.30;;;;;;;;;;5019375;28;20135;-62
2022/04/18 14:48:01;;;;;;;10.52;6.45;;;;;;;;;;5019841;28;20017;-61
2022/04/18 14:50:26;;;;;;;8.70;6.38;;;;;;;;;;5025539;28;20662;-62
2022/04/18 14:52:52;;;;;;;9.23;6.60;;;;;;;;;;5023631;28;20094;-63
2022/04/18 14:55:20;;;;;;;10.75;7.65;;;;;;;;;;5020979;28;20251;-62
2022/04/18 14:57:45;;;;;;;10.32;7.07;;;;;;;;;;5021859;28;20905;-61
2022/04/18 15:00:10;;;;;;;9.45;7.60;;;;;;;;;;5022718;28;20085;-61
2022/04/18 15:02:38;;;;;;;11.88;7.35;;;;;;;;;;5022932;28;20750;-60
2022/04/18 15:05:03;;;;;;;11.00;7.85;;;;;;;;;;5023205;28;20168;-61
2022/04/18 15:07:29;;;;;;;8.27;7.47;;;;;;;;;;5021573;28;20054;-60
2022/04/18 15:09:54;;;;;;;14.68;8.40;;;;;;;;;;5023594;28;20169;-61
2022/04/18 15:12:19;;;;;;;9.23;8.00;;;;;;;;;;5022103;28;20020;-62